Time;durP1;ratioP1;P1;durP2;ratioP2;P2;SDS_P1;SDS_P2;PMS_P1;PMS_P2;Temp;Humidity;BMP_temperature;BMP_pressure;BME280_temperature;BME280_humidity;BME280_pressure;Samples;Min_cycle;Max_cycle;Signal;HPM_P1;HPM_P2
2022/08/05 00:00:48;;;;;;;2.58;1.98;;;;;;;20.62;62.55;96739.72;10249566;28;20074;-90
2022/08/05 00:06:08;;;;;;;2.05;1.80;;;;;;;20.61;62.88;96744.34;10275863;28;20051;-89
2022/08/05 00:11:28;;;;;;;1.70;1.60;;;;;;;20.61;62.83;96733.53;10232435;28;20130;-90
2022/08/05 00:16:48;;;;;;;4.25;2.08;;;;;;;20.61;62.90;96732.75;10262886;28;20125;-90
2022/08/05 00:22:08;;;;;;;2.00;1.80;;;;;;;20.62;62.76;96734.31;10273337;28;20059;-89
2022/08/05 00:27:29;;;;;;;2.40;1.77;;;;;;;20.63;62.69;96727.78;10269036;28;20561;-90
2022/08/05 00:32:49;;;;;;;2.58;1.88;;;;;;;20.62;62.81;96728.91;10244270;28;20089;-90
2022/08/05 00:38:09;;;;;;;2.05;1.85;;;;;;;20.62;62.72;96735.13;10252812;28;20055;-89
2022/08/05 00:43:30;;;;;;;2.28;1.88;;;;;;;20.62;62.71;96718.06;10270886;28;20169;-90
2022/08/05 00:48:50;;;;;;;2.45;1.88;;;;;;;20.63;62.78;96720.44;10248499;28;20054;-90
2022/08/05 00:54:13;;;;;;;2.45;1.88;;;;;;;20.63;62.79;96719.66;10285154;28;20125;-90
2022/08/05 00:59:33;;;;;;;1.90;1.80;;;;;;;20.63;62.73;96717.75;10248952;28;20070;-90
2022/08/05 01:04:53;;;;;;;2.08;1.88;;;;;;;20.63;62.78;96715.03;10259007;28;20137;-90
2022/08/05 01:10:15;;;;;;;1.80;1.70;;;;;;;20.63;62.68;96706.13;10243470;28;20078;-90
2022/08/05 01:15:39;;;;;;;1.90;1.80;;;;;;;20.63;62.65;96703.44;10269319;28;20487;-90
2022/08/05 01:21:05;;;;;;;1.92;1.77;;;;;;;20.63;62.72;96700.72;10256910;28;20083;-89
2022/08/05 01:26:46;;;;;;;2.10;1.90;;;;;;;20.63;62.78;96703.44;10258336;28;20081;-90
2022/08/05 01:32:08;;;;;;;2.35;1.85;;;;;;;20.63;62.61;96698.78;10254942;28;20182;-90
2022/08/05 01:37:40;;;;;;;2.15;1.90;;;;;;;20.62;62.73;96699.94;10268206;28;20607;-89
2022/08/05 01:43:03;;;;;;;1.70;1.60;;;;;;;20.63;62.72;96685.25;10275216;28;20134;-90
2022/08/05 01:48:25;;;;;;;1.95;1.85;;;;;;;20.62;62.54;96683.69;10204455;29;20117;-90
2022/08/05 01:53:47;;;;;;;2.00;1.80;;;;;;;20.63;62.57;96676.38;10214369;29;20075;-90
2022/08/05 01:59:11;;;;;;;1.67;1.58;;;;;;;20.63;62.53;96679.06;10243022;28;20078;-90
2022/08/05 02:04:34;;;;;;;1.70;1.60;;;;;;;20.63;62.48;96676.38;10204812;29;20071;-90
2022/08/05 02:09:54;;;;;;;2.05;1.88;;;;;;;20.63;62.66;96669.03;10214320;29;20138;-90
2022/08/05 02:15:24;;;;;;;1.83;1.70;;;;;;;20.63;62.56;96660.13;10238985;28;20487;-90
2022/08/05 02:21:06;;;;;;;1.60;1.48;;;;;;;20.62;62.57;96663.94;10217881;29;20055;-90
2022/08/05 02:26:34;;;;;;;1.83;1.73;;;;;;;20.63;62.63;96662.81;10259269;28;20521;-90
2022/08/05 02:31:56;;;;;;;2.00;1.80;;;;;;;20.63;62.53;96662.81;10228745;29;20130;-90
2022/08/05 02:37:18;;;;;;;1.80;1.70;;;;;;;20.63;62.46;96662.81;10225933;29;20063;-90
2022/08/05 02:42:38;;;;;;;2.15;1.63;;;;;;;20.63;62.56;96650.06;10230635;28;20078;-89
2022/08/05 02:47:59;;;;;;;1.85;1.75;;;;;;;20.63;62.46;96649.28;10249083;28;20079;-90
2022/08/05 02:53:20;;;;;;;1.75;1.63;;;;;;;20.64;62.56;96640.03;10280792;28;20473;-91
2022/08/05 02:58:41;;;;;;;2.05;1.83;;;;;;;20.63;62.33;96633.06;10267108;28;20414;-90
2022/08/05 03:04:02;;;;;;;1.77;1.67;;;;;;;20.63;62.35;96635.75;10253801;28;20388;-90
2022/08/05 03:09:22;;;;;;;1.70;1.60;;;;;;;20.62;62.50;96634.97;10264342;28;20061;-90
2022/08/05 03:14:41;;;;;;;1.88;1.77;;;;;;;20.63;62.47;96635.75;10238381;28;20058;-89
2022/08/05 03:20:02;;;;;;;1.80;1.70;;;;;;;20.63;62.43;96633.84;10254324;28;20090;-90
2022/08/05 03:25:22;;;;;;;1.90;1.80;;;;;;;20.62;62.32;96631.47;10266017;28;20527;-90
2022/08/05 03:30:43;;;;;;;2.22;1.77;;;;;;;20.63;62.24;96636.53;10261973;28;20171;-90
2022/08/05 03:36:03;;;;;;;1.80;1.70;;;;;;;20.64;62.12;96629.22;10274883;28;20050;-90
2022/08/05 03:41:23;;;;;;;1.60;1.50;;;;;;;20.63;62.18;96627.63;10246288;28;20475;-90
2022/08/05 03:46:43;;;;;;;1.88;1.75;;;;;;;20.64;62.21;96634.63;10282865;28;20067;-90
2022/08/05 03:52:05;;;;;;;2.38;1.83;;;;;;;20.64;62.07;96640.03;10242764;28;20130;-89
2022/08/05 03:57:28;;;;;;;2.70;1.80;;;;;;;20.62;61.96;96631.47;10285696;28;20133;-90
2022/08/05 04:02:50;;;;;;;1.77;1.67;;;;;;;20.62;62.13;96634.97;10261200;28;20499;-90
2022/08/05 04:08:10;;;;;;;2.40;2.20;;;;;;;20.60;59.98;96629.13;10273498;28;20054;-89
2022/08/05 04:13:29;;;;;;;2.53;2.30;;;;;;;20.48;57.11;96632.53;10247762;28;20105;-91
2022/08/05 04:19:04;;;;;;;2.78;2.38;;;;;;;20.39;56.42;96625.63;10258824;28;20142;-91
2022/08/05 04:24:35;;;;;;;3.60;2.53;;;;;;;20.34;55.82;96622.00;10247946;28;20062;-90
2022/08/05 04:29:55;;;;;;;3.47;2.50;;;;;;;20.31;55.06;96622.69;10244257;28;20418;-89
2022/08/05 04:35:17;;;;;;;3.53;2.35;;;;;;;20.29;55.15;96622.22;10270747;28;20069;-91
2022/08/05 04:40:39;;;;;;;3.22;2.45;;;;;;;20.27;55.28;96629.09;10249587;28;20074;-88
2022/08/05 04:45:58;;;;;;;4.03;2.60;;;;;;;20.27;54.98;96626.38;10305647;28;20125;-89
2022/08/05 04:51:18;;;;;;;2.97;2.38;;;;;;;-146.19;100.00;65364.44;10230386;28;20055;-88
2022/08/05 04:56:38;;;;;;;3.25;2.60;;;;;;;-146.19;100.00;65364.44;10242128;28;20125;-89
2022/08/05 05:01:59;;;;;;;3.30;2.50;;;;;;;20.34;56.66;96635.53;10283604;28;20130;-90
2022/08/05 05:07:19;;;;;;;3.30;2.20;;;;;;;20.37;56.99;96647.59;10254125;28;20142;-90
2022/08/05 05:12:39;;;;;;;4.00;2.78;;;;;;;20.40;57.42;96652.34;10247525;28;20051;-90
2022/08/05 05:17:58;;;;;;;4.13;2.92;;;;;;;20.41;57.68;96648.53;10257680;28;20055;-90
2022/08/05 05:23:18;;;;;;;6.38;3.08;;;;;;;20.42;57.79;96635.78;10271174;28;20051;-90
2022/08/05 05:28:37;;;;;;;4.75;3.17;;;;;;;20.43;58.21;96646.28;10254749;28;20083;-90
2022/08/05 05:33:58;;;;;;;9.63;4.28;;;;;;;20.44;58.34;96649.75;10250018;28;20626;-89
2022/08/05 05:39:18;;;;;;;10.45;4.72;;;;;;;20.45;58.43;96648.66;10249527;28;20047;-90
2022/08/05 05:44:37;;;;;;;11.63;5.13;;;;;;;20.45;58.73;96648.66;10227094;28;20484;-90
2022/08/05 05:49:57;;;;;;;11.27;5.00;;;;;;;20.46;58.77;96642.09;10283459;28;20517;-90
2022/08/05 05:55:17;;;;;;;11.10;5.10;;;;;;;20.47;58.85;96643.69;10283228;28;20097;-89
2022/08/05 06:00:37;;;;;;;9.88;5.65;;;;;;;20.47;59.16;96641.00;10269229;28;20059;-89
2022/08/05 06:05:57;;;;;;;10.90;5.35;;;;;;;20.46;59.09;96640.19;10253532;28;20054;-90
2022/08/05 06:11:17;;;;;;;11.23;5.47;;;;;;;20.47;59.14;96646.41;10249637;28;20052;-90
2022/08/05 06:16:36;;;;;;;15.00;4.88;;;;;;;20.47;59.19;96641.00;10249267;28;20063;-89
2022/08/05 06:21:56;;;;;;;12.88;5.35;;;;;;;20.48;59.45;96637.16;10268874;28;20082;-90
2022/08/05 06:27:17;;;;;;;13.65;5.90;;;;;;;20.48;59.42;96637.16;10246214;28;20057;-89
2022/08/05 06:32:36;;;;;;;11.43;5.50;;;;;;;20.47;59.52;96633.66;10275842;28;20170;-89
2022/08/05 06:37:56;;;;;;;12.02;5.45;;;;;;;20.49;59.66;96644.16;10239559;28;20051;-91
2022/08/05 06:43:16;;;;;;;11.85;5.65;;;;;;;20.48;59.52;96643.38;10230896;28;20051;-89
2022/08/05 06:48:36;;;;;;;13.27;5.60;;;;;;;20.48;59.54;96640.66;10263440;28;20142;-90
2022/08/05 06:54:01;;;;;;;11.20;5.82;;;;;;;20.49;59.79;96644.94;10267147;28;20507;-90
2022/08/05 06:59:21;;;;;;;10.60;5.32;;;;;;;20.49;59.93;96655.75;10279474;28;20085;-90
2022/08/05 07:04:40;;;;;;;11.57;5.65;;;;;;;20.50;59.86;96648.44;10254536;28;20058;-89
2022/08/05 07:10:00;;;;;;;9.38;5.10;;;;;;;20.50;60.08;96643.00;10266620;28;20063;-89
2022/08/05 07:20:58;;;;;;;15.10;5.78;;;;;;;20.50;60.11;96653.84;10254067;28;20541;-90
2022/08/05 07:26:18;;;;;;;11.82;5.97;;;;;;;20.51;60.25;96647.31;10237216;28;20495;-89
2022/08/05 07:31:38;;;;;;;11.38;5.25;;;;;;;20.51;60.42;96637.28;10279882;28;20126;-90
2022/08/05 07:36:58;;;;;;;10.82;5.43;;;;;;;20.51;60.42;96639.19;10228762;28;20584;-90
2022/08/05 07:42:18;;;;;;;9.88;5.00;;;;;;;20.50;60.48;96641.13;10273549;28;20054;-90
2022/08/05 07:47:38;;;;;;;10.55;5.40;;;;;;;20.51;60.42;96642.69;10265853;28;20094;-90
2022/08/05 07:52:58;;;;;;;8.88;5.07;;;;;;;20.52;60.49;96648.88;10266102;28;20422;-89
2022/08/05 07:58:18;;;;;;;9.32;5.40;;;;;;;20.52;60.49;96648.88;10262091;28;20047;-89
2022/08/05 08:03:38;;;;;;;9.93;5.20;;;;;;;20.52;60.73;96649.69;10263352;28;20194;-89
2022/08/05 08:08:57;;;;;;;9.80;5.57;;;;;;;20.52;60.79;96643.47;10280777;28;20137;-90
2022/08/05 08:14:17;;;;;;;8.40;4.97;;;;;;;20.53;60.77;96639.66;10250580;28;20142;-89
2022/08/05 08:19:38;;;;;;;10.10;5.20;;;;;;;20.52;60.91;96633.47;10271760;28;20407;-89
2022/08/05 08:24:58;;;;;;;7.82;5.28;;;;;;;20.52;61.28;96644.28;10249429;28;20521;-89
2022/08/05 08:30:18;;;;;;;7.85;4.95;;;;;;;20.54;60.93;96652.84;10237510;28;20054;-89
2022/08/05 08:35:38;;;;;;;7.80;4.80;;;;;;;20.54;61.01;96658.28;10279136;28;20079;-90
2022/08/05 08:40:59;;;;;;;8.93;5.22;;;;;;;20.53;61.18;96666.72;10272488;28;20079;-90
2022/08/05 08:46:19;;;;;;;10.18;5.20;;;;;;;20.54;61.21;96676.41;10272523;28;20058;-90
2022/08/05 08:51:41;;;;;;;6.93;4.70;;;;;;;20.54;61.30;96668.28;10250145;28;20166;-90
2022/08/05 08:57:01;;;;;;;8.38;4.93;;;;;;;20.54;61.23;96671.81;10249499;28;20146;-90
2022/08/05 09:02:21;;;;;;;8.30;4.78;;;;;;;20.54;61.19;96669.09;10269338;28;20059;-89
2022/08/05 09:07:40;;;;;;;10.98;4.93;;;;;;;20.55;61.32;96659.84;10254923;28;20499;-89
2022/08/05 09:13:00;;;;;;;7.80;4.63;;;;;;;20.57;61.37;96664.13;10249760;28;20582;-89
2022/08/05 09:18:20;;;;;;;8.80;4.70;;;;;;;20.56;61.33;96671.44;10287814;28;20130;-90
2022/08/05 09:23:44;;;;;;;6.97;4.43;;;;;;;20.55;61.35;96670.66;10253626;28;20083;-89
2022/08/05 09:29:05;;;;;;;7.53;4.43;;;;;;;20.57;61.46;96677.66;10236552;28;20047;-89
2022/08/05 09:34:25;;;;;;;9.32;4.88;;;;;;;20.56;61.48;96682.28;10237305;28;20094;-89
2022/08/05 09:39:45;;;;;;;7.07;4.45;;;;;;;20.57;61.55;96686.56;10256450;28;20090;-89
2022/08/05 09:45:06;;;;;;;8.15;4.45;;;;;;;20.57;61.54;96683.88;10253141;28;20135;-89
2022/08/05 09:50:36;;;;;;;7.72;4.45;;;;;;;20.58;61.56;96668.41;10260240;28;20141;-89
2022/08/05 09:55:58;;;;;;;7.95;4.72;;;;;;;20.57;61.73;96673.03;10269542;28;20130;-89
2022/08/05 10:01:18;;;;;;;6.22;4.28;;;;;;;20.59;61.56;96667.31;10259553;28;20062;-89
2022/08/05 10:06:39;;;;;;;7.25;4.22;;;;;;;20.58;61.66;96663.81;10240124;28;20061;-89
2022/08/05 10:12:09;;;;;;;8.10;4.68;;;;;;;20.58;61.66;96650.28;10250492;28;20414;-89
2022/08/05 10:17:29;;;;;;;6.18;4.07;;;;;;;20.59;61.66;96653.75;10247046;28;20163;-90
2022/08/05 10:22:49;;;;;;;7.45;4.00;;;;;;;20.59;61.70;96656.47;10266290;28;20457;-90
2022/08/05 10:28:10;;;;;;;6.28;3.92;;;;;;;20.59;61.59;96659.19;10239401;28;20059;-89
2022/08/05 10:33:31;;;;;;;4.80;3.67;;;;;;;20.58;61.89;96661.09;10239141;28;20063;-90
2022/08/05 10:38:57;;;;;;;5.30;3.97;;;;;;;20.60;61.71;96671.59;10239539;28;20486;-90
2022/08/05 10:44:18;;;;;;;5.40;4.00;;;;;;;20.59;61.82;96665.41;10262480;28;20154;-89
2022/08/05 10:50:11;;;;;;;5.93;3.92;;;;;;;20.52;59.62;96667.81;10252372;28;20055;-90
2022/08/05 10:55:31;;;;;;;5.75;3.67;;;;;;;20.38;57.59;96664.63;10254701;28;20051;-90
2022/08/05 11:00:54;;;;;;;6.10;4.00;;;;;;;20.37;59.58;96671.19;10250253;28;20198;-90
2022/08/05 11:06:15;;;;;;;5.70;3.65;;;;;;;20.35;58.66;96669.59;10244525;28;20137;-89
2022/08/05 11:11:35;;;;;;;4.78;3.58;;;;;;;20.31;58.70;96671.38;10237964;28;20054;-89
2022/08/05 11:17:24;;;;;;;4.78;3.55;;;;;;;20.35;59.40;96666.09;10237626;28;20085;-90
2022/08/05 11:22:47;;;;;;;5.15;3.70;;;;;;;-146.19;100.00;65364.44;10279107;28;20043;-90
2022/08/05 11:28:08;;;;;;;4.10;3.40;;;;;;;20.32;59.91;96672.94;10243538;28;20435;-90
2022/08/05 11:33:47;;;;;;;8.73;3.92;;;;;;;-146.19;100.00;65364.44;10250279;28;20063;-90
2022/08/05 11:39:07;;;;;;;4.90;3.60;;;;;;;20.31;59.89;96676.78;10273387;28;20191;-90
2022/08/05 11:44:35;;;;;;;4.63;3.53;;;;;;;20.30;58.33;96677.09;10262680;28;20051;-89
2022/08/05 11:49:57;;;;;;;3.97;3.37;;;;;;;20.33;60.05;96668.34;10251057;28;20059;-89
2022/08/05 11:55:17;;;;;;;6.03;3.80;;;;;;;20.32;58.53;96674.84;10237293;28;20058;-89
2022/08/05 12:00:37;;;;;;;4.45;3.53;;;;;;;20.29;59.15;96670.13;10250834;28;20051;-90
2022/08/05 12:05:59;;;;;;;4.60;3.80;;;;;;;20.33;59.96;96666.41;10268483;28;20051;-90
2022/08/05 12:11:21;;;;;;;3.83;3.28;;;;;;;20.39;60.13;96671.63;10268504;28;20054;-89
2022/08/05 12:16:43;;;;;;;5.97;3.72;;;;;;;20.40;60.11;96663.16;10278817;28;20089;-89
2022/08/05 12:22:04;;;;;;;4.32;3.20;;;;;;;20.42;60.25;96669.03;10260448;28;20055;-90
2022/08/05 12:27:28;;;;;;;4.20;3.30;;;;;;;20.45;60.29;96662.97;10268387;28;20058;-91
2022/08/05 12:32:52;;;;;;;4.55;3.50;;;;;;;20.47;60.30;96668.84;10260059;28;20414;-90
2022/08/05 12:38:12;;;;;;;4.18;3.13;;;;;;;20.48;60.45;96658.78;10254959;28;20408;-89
2022/08/05 12:43:32;;;;;;;4.10;3.35;;;;;;;20.48;60.44;96665.03;10257146;28;20086;-90
2022/08/05 12:49:13;;;;;;;4.22;3.22;;;;;;;20.50;60.46;96668.19;10256628;28;20467;-89
2022/08/05 12:54:34;;;;;;;5.35;3.20;;;;;;;20.51;60.65;96666.25;10272209;28;20055;-89
2022/08/05 12:59:54;;;;;;;3.70;2.90;;;;;;;20.53;60.75;96667.50;10275048;28;20073;-89
2022/08/05 13:05:14;;;;;;;4.13;3.38;;;;;;;20.55;60.76;96664.47;10258087;28;20043;-89
2022/08/05 13:10:41;;;;;;;3.80;2.90;;;;;;;20.55;60.87;96661.75;10269737;28;20093;-89
2022/08/05 13:16:01;;;;;;;4.22;3.28;;;;;;;20.54;60.96;96650.16;10256153;28;20050;-90
2022/08/05 13:21:21;;;;;;;4.35;2.80;;;;;;;20.56;61.05;96636.25;10284518;28;20126;-90
2022/08/05 13:26:41;;;;;;;3.67;2.83;;;;;;;20.55;61.24;96646.31;10257949;28;20046;-89
2022/08/05 13:32:00;;;;;;;3.28;2.97;;;;;;;20.57;61.25;96629.75;10243343;28;20055;-90
2022/08/05 13:37:21;;;;;;;3.63;2.72;;;;;;;20.57;61.36;96627.03;10297868;28;20384;-89
2022/08/05 13:42:42;;;;;;;3.45;2.92;;;;;;;20.59;61.37;96615.88;10254445;28;20054;-89
2022/08/05 13:48:02;;;;;;;3.33;2.90;;;;;;;20.58;61.59;96609.69;10253537;28;20138;-89
2022/08/05 13:53:22;;;;;;;2.97;2.70;;;;;;;20.59;61.63;96611.28;10270455;28;20197;-89
2022/08/05 13:58:41;;;;;;;3.95;3.15;;;;;;;20.60;61.65;96598.53;10274359;28;20586;-89
2022/08/05 14:09:41;;;;;;;2.60;2.38;;;;;;;20.60;61.76;96596.63;10284790;28;20057;-89
2022/08/05 14:15:01;;;;;;;3.05;2.75;;;;;;;20.62;61.94;96588.16;10253831;28;20105;-89
2022/08/05 14:20:20;;;;;;;4.15;2.78;;;;;;;20.61;61.93;96587.38;10252357;28;20082;-89
2022/08/05 14:25:40;;;;;;;3.65;2.85;;;;;;;20.63;62.01;96589.75;10242991;28;20513;-89
2022/08/05 14:31:01;;;;;;;2.97;2.67;;;;;;;20.63;62.06;96585.13;10252909;28;20062;-89
2022/08/05 14:36:21;;;;;;;4.05;2.60;;;;;;;20.65;62.10;96592.91;10280641;28;20059;-89
2022/08/05 14:41:41;;;;;;;2.75;2.30;;;;;;;20.65;62.19;96585.56;10238458;28;20521;-88
2022/08/05 14:47:01;;;;;;;3.53;2.70;;;;;;;20.65;62.29;96585.56;10267077;28;20556;-89
2022/08/05 14:52:20;;;;;;;2.67;2.42;;;;;;;20.67;62.30;96590.66;10238351;28;20055;-89
2022/08/05 14:57:40;;;;;;;3.38;2.80;;;;;;;20.66;62.36;96591.75;10236960;28;20066;-89
2022/08/05 15:03:01;;;;;;;2.58;2.38;;;;;;;20.67;62.39;96591.44;10242913;28;20101;-90
2022/08/05 15:08:21;;;;;;;2.53;2.25;;;;;;;20.66;62.46;96587.16;10252002;28;20065;-90
2022/08/05 15:13:41;;;;;;;3.05;2.58;;;;;;;20.66;62.64;96584.47;10245356;28;20062;-91
2022/08/05 15:19:01;;;;;;;3.60;2.65;;;;;;;20.67;62.58;96575.19;10238849;28;20085;-91
2022/08/05 15:24:20;;;;;;;2.70;2.35;;;;;;;20.68;62.79;96581.41;10245696;28;20134;-91
2022/08/05 15:29:41;;;;;;;4.13;2.53;;;;;;;20.69;62.64;96581.06;10263641;28;20074;-90
2022/08/05 15:35:02;;;;;;;2.83;2.30;;;;;;;20.68;62.82;96582.19;10251318;28;20098;-90
2022/08/05 15:40:22;;;;;;;2.65;2.45;;;;;;;20.69;62.89;96570.22;10241699;28;20495;-91
2022/08/05 15:45:43;;;;;;;2.45;2.25;;;;;;;20.69;62.79;96572.94;10254148;28;20276;-92
2022/08/05 15:51:03;;;;;;;2.55;2.35;;;;;;;20.70;62.99;96579.16;10265185;28;20081;-91
2022/08/05 15:56:23;;;;;;;3.45;2.42;;;;;;;20.71;63.00;96570.69;10252059;28;20142;-92
2022/08/05 16:01:46;;;;;;;2.40;2.20;;;;;;;20.70;62.87;96577.25;10246650;28;20503;-92
2022/08/05 16:07:06;;;;;;;2.33;2.13;;;;;;;20.70;62.85;96563.72;10245729;28;20063;-92
2022/08/05 16:12:26;;;;;;;2.40;2.20;;;;;;;20.73;62.97;96579.25;10244760;28;20050;-91
2022/08/05 16:17:46;;;;;;;3.47;2.22;;;;;;;20.71;63.01;96564.50;10244762;28;20062;-91
2022/08/05 16:23:06;;;;;;;2.00;1.90;;;;;;;20.72;63.03;96568.78;10244736;28;20073;-92
2022/08/05 16:28:26;;;;;;;2.30;2.08;;;;;;;20.71;62.96;96576.09;10274424;28;20078;-91
2022/08/05 16:33:46;;;;;;;2.20;2.00;;;;;;;20.72;62.96;96579.63;10246390;28;20113;-92
2022/08/05 16:39:06;;;;;;;2.45;2.25;;;;;;;20.74;63.13;96585.47;10300489;28;20050;-91
2022/08/05 16:44:26;;;;;;;2.20;2.00;;;;;;;20.72;63.14;96583.09;10276068;28;20069;-91
2022/08/05 16:49:45;;;;;;;2.30;2.10;;;;;;;20.72;63.08;96588.53;10247220;28;20078;-90
2022/08/05 16:55:06;;;;;;;2.20;2.00;;;;;;;20.74;63.15;96593.59;10256027;28;20495;-91
2022/08/05 17:00:26;;;;;;;2.88;2.20;;;;;;;20.74;63.39;96590.91;10269879;28;20059;-91
2022/08/05 17:05:46;;;;;;;2.08;1.88;;;;;;;20.73;63.32;96590.09;10283850;28;20105;-90
2022/08/05 17:11:07;;;;;;;2.40;2.13;;;;;;;20.73;63.28;96598.22;10251324;28;20130;-90
2022/08/05 17:16:26;;;;;;;2.45;2.05;;;;;;;20.76;63.33;96598.66;10242901;28;20125;-90
2022/08/05 17:21:46;;;;;;;2.45;2.13;;;;;;;20.74;63.37;96602.50;10265295;28;20058;-91
2022/08/05 17:27:06;;;;;;;2.40;2.10;;;;;;;20.76;63.46;96617.59;10246214;28;20487;-91
2022/08/05 17:32:26;;;;;;;2.30;2.10;;;;;;;20.76;63.38;96609.50;10268576;28;20055;-91
2022/08/05 17:37:46;;;;;;;2.33;2.13;;;;;;;20.74;63.60;96613.34;10254597;28;20062;-90
2022/08/05 17:43:06;;;;;;;2.13;1.92;;;;;;;20.77;63.39;96619.22;10244328;28;20074;-90
2022/08/05 17:48:26;;;;;;;1.95;1.85;;;;;;;20.77;63.51;96630.81;10247602;28;20055;-90
2022/08/05 17:53:46;;;;;;;2.53;1.80;;;;;;;20.78;63.45;96631.59;10269832;28;20130;-89
2022/08/05 17:59:06;;;;;;;2.75;1.80;;;;;;;20.78;63.55;96639.72;10269521;28;20483;-91
2022/08/05 18:04:26;;;;;;;2.20;2.00;;;;;;;20.79;63.67;96644.03;10246428;28;20138;-90
2022/08/05 18:09:46;;;;;;;3.75;2.00;;;;;;;20.78;63.50;96650.56;10254838;28;20111;-90
2022/08/05 18:15:06;;;;;;;2.45;2.00;;;;;;;20.80;63.63;96664.56;10241477;28;20069;-90
2022/08/05 18:20:26;;;;;;;2.20;2.00;;;;;;;20.79;63.67;96684.63;10268061;28;20061;-89
2022/08/05 18:25:46;;;;;;;2.33;1.83;;;;;;;20.77;63.57;96684.97;10245214;28;20085;-90
2022/08/05 18:31:06;;;;;;;2.20;2.00;;;;;;;20.79;63.68;96690.84;10249155;28;20063;-90
2022/08/05 18:36:26;;;;;;;2.13;1.92;;;;;;;20.80;63.60;96670.78;10255595;28;20066;-90
2022/08/05 18:41:48;;;;;;;2.10;1.90;;;;;;;20.78;63.62;96678.44;10242893;28;20569;-90
2022/08/05 18:47:07;;;;;;;2.20;1.90;;;;;;;20.79;63.79;96698.16;10275886;28;20521;-90
2022/08/05 18:52:40;;;;;;;2.55;2.05;;;;;;;20.78;63.70;96694.69;10281269;28;20568;-90
2022/08/05 18:58:00;;;;;;;3.65;2.00;;;;;;;20.80;63.55;96708.66;10252845;28;20058;-91
2022/08/05 19:03:19;;;;;;;2.10;1.90;;;;;;;20.80;63.73;96710.59;10238387;28;20138;-90
2022/08/05 19:08:40;;;;;;;1.98;1.73;;;;;;;20.80;63.52;96730.34;10267160;28;20055;-90
2022/08/05 19:14:00;;;;;;;2.38;1.75;;;;;;;20.80;63.49;96760.13;10267620;28;20129;-90
2022/08/05 19:19:23;;;;;;;3.58;2.10;;;;;;;20.81;63.66;96785.25;10259149;28;20054;-91
2022/08/05 19:24:44;;;;;;;3.15;1.90;;;;;;;20.81;63.57;96786.06;10251055;28;20070;-90
2022/08/05 19:30:05;;;;;;;2.30;2.10;;;;;;;20.82;63.65;96816.66;10277193;28;20450;-90
2022/08/05 19:35:25;;;;;;;2.20;2.00;;;;;;;20.82;63.62;96809.31;10280189;28;20050;-90
2022/08/05 19:40:46;;;;;;;2.20;2.00;;;;;;;20.81;63.79;96828.59;10250629;28;20493;-90
2022/08/05 19:46:05;;;;;;;2.45;2.00;;;;;;;20.81;63.75;96840.19;10249925;28;20069;-90
2022/08/05 19:54:14;;;;;;;2.78;1.83;;;;;;;20.82;63.54;96868.09;10488205;27;20405;-52
2022/08/05 19:59:34;;;;;;;2.25;2.05;;;;;;;20.82;63.65;96892.47;10491082;28;20052;-52
2022/08/05 20:05:25;;;;;;;2.20;2.10;;;;;;;20.83;63.66;96888.59;10490115;27;20390;-52
2022/08/05 20:10:44;;;;;;;2.55;2.30;;;;;;;20.83;63.66;96883.19;10490755;28;20055;-53
2022/08/05 20:16:04;;;;;;;2.60;2.10;;;;;;;20.83;63.72;96888.59;10480442;28;20048;-53
2022/08/05 20:21:24;;;;;;;2.55;2.28;;;;;;;20.82;63.73;96887.81;10490590;28;20091;-52
2022/08/05 20:26:43;;;;;;;2.58;2.38;;;;;;;20.82;63.57;96884.34;10490573;28;20049;-53
2022/08/05 20:32:03;;;;;;;2.30;2.10;;;;;;;20.82;63.71;96890.53;10490296;28;20079;-52
2022/08/05 20:37:22;;;;;;;2.50;2.20;;;;;;;20.82;63.57;96901.38;10490122;28;20056;-52
2022/08/05 20:42:42;;;;;;;2.55;2.33;;;;;;;20.83;63.64;96912.97;10489947;28;20449;-52
2022/08/05 20:48:02;;;;;;;2.28;2.08;;;;;;;20.82;63.65;96914.91;10478042;28;20053;-52
2022/08/05 20:53:21;;;;;;;2.20;2.00;;;;;;;20.83;63.72;96899.44;10502888;28;20052;-52
2022/08/05 20:58:42;;;;;;;2.30;2.10;;;;;;;20.84;63.68;96920.78;10489245;28;20056;-52
2022/08/05 21:04:01;;;;;;;2.45;2.10;;;;;;;20.83;63.60;96918.41;10519023;28;20048;-53
2022/08/05 21:09:21;;;;;;;2.30;2.10;;;;;;;20.83;63.74;96937.34;10530707;28;20051;-52
2022/08/05 21:14:41;;;;;;;2.50;1.98;;;;;;;20.83;63.57;96940.06;10514492;28;20477;-52
2022/08/05 21:20:00;;;;;;;2.03;1.92;;;;;;;20.83;63.74;96948.97;10500222;28;20048;-53
2022/08/05 21:25:20;;;;;;;2.42;2.22;;;;;;;20.83;63.59;96945.47;10490143;28;20057;-52
2022/08/05 21:30:39;;;;;;;2.40;2.20;;;;;;;20.84;63.72;96941.66;10515710;28;20048;-52
2022/08/05 21:37:48;;;;;;;2.28;2.03;;;;;;;20.83;63.60;96943.56;10571785;27;20384;-52
2022/08/05 21:43:07;;;;;;;2.10;1.90;;;;;;;20.83;63.64;96940.06;10575427;28;20055;-52
2022/08/05 21:48:27;;;;;;;2.30;2.10;;;;;;;20.83;63.60;96940.84;10564496;28;20052;-52
2022/08/05 21:53:47;;;;;;;1.90;1.80;;;;;;;20.84;63.65;96947.06;10574837;28;20047;-52
2022/08/05 21:59:06;;;;;;;2.10;1.92;;;;;;;20.84;63.62;96947.06;10574811;28;20051;-52
2022/08/05 22:04:26;;;;;;;2.28;2.08;;;;;;;20.84;63.56;96949.78;10574520;28;20047;-52
2022/08/05 22:09:45;;;;;;;2.17;2.08;;;;;;;20.83;63.54;96956.31;10574331;28;20056;-52
2022/08/05 22:15:08;;;;;;;2.20;2.10;;;;;;;20.84;63.51;96960.63;10573887;28;20113;-52
2022/08/05 22:20:27;;;;;;;2.35;2.15;;;;;;;20.84;63.68;96960.63;10562033;28;20119;-52
2022/08/05 22:31:25;;;;;;;2.22;2.13;;;;;;;20.84;63.58;96964.09;10573254;28;20116;-52
2022/08/05 22:36:44;;;;;;;2.50;2.30;;;;;;;20.84;63.49;96964.09;10568016;28;20056;-52
2022/08/05 22:42:03;;;;;;;2.42;2.22;;;;;;;20.84;63.44;96963.31;10572836;28;20384;-52
2022/08/05 22:47:24;;;;;;;2.30;2.13;;;;;;;20.83;63.47;96967.91;10553796;28;20060;-52
2022/08/05 22:52:43;;;;;;;2.10;2.00;;;;;;;20.85;63.49;96987.34;10544110;28;20048;-51
2022/08/05 22:58:03;;;;;;;2.17;2.08;;;;;;;20.84;63.53;96991.19;10548004;28;20040;-52
2022/08/05 23:03:22;;;;;;;3.25;2.20;;;;;;;20.84;63.46;96991.19;10557766;28;20682;-52
2022/08/05 23:08:41;;;;;;;2.30;2.10;;;;;;;20.85;63.46;96989.25;10544099;28;20419;-52
2022/08/05 23:14:00;;;;;;;2.03;1.90;;;;;;;20.85;63.45;96991.97;10531469;28;20048;-52
2022/08/05 23:19:19;;;;;;;2.10;2.00;;;;;;;20.84;63.33;96990.41;10542926;28;20056;-52
2022/08/05 23:24:38;;;;;;;2.17;2.00;;;;;;;20.86;63.44;97004.41;10542589;28;20056;-52
2022/08/05 23:29:59;;;;;;;2.30;2.10;;;;;;;20.86;63.30;96996.28;10555912;28;20074;-52
2022/08/05 23:35:19;;;;;;;2.20;2.00;;;;;;;20.85;63.44;96995.47;10542261;28;20066;-52
2022/08/05 23:40:38;;;;;;;2.20;2.10;;;;;;;20.85;63.28;97017.13;10543101;28;20051;-52
2022/08/05 23:45:58;;;;;;;2.13;1.92;;;;;;;20.85;63.31;97046.91;10541556;28;20510;-53
2022/08/05 23:51:17;;;;;;;1.95;1.85;;;;;;;20.85;63.26;97044.19;10529715;28;20056;-52
2022/08/05 23:56:36;;;;;;;2.50;2.30;;;;;;;20.85;63.26;97055.03;10540665;28;20048;-52
